createdAt,value
2023-04-10T00:01:53.445Z,7.54
2023-04-10T00:04:20.239Z,7.54
2023-04-10T00:06:49.081Z,7.53
2023-04-10T00:09:15.840Z,7.58
2023-04-10T00:11:42.582Z,7.58
2023-04-10T00:14:09.154Z,7.52
2023-04-10T00:16:35.938Z,7.46
2023-04-10T00:19:02.726Z,7.48
2023-04-10T00:21:29.393Z,7.53
2023-04-10T00:23:56.403Z,7.34
2023-04-10T00:26:24.017Z,7.35
2023-04-10T00:28:51.055Z,7.41
2023-04-10T00:31:17.723Z,7.36
2023-04-10T00:33:44.424Z,7.42
2023-04-10T00:36:11.321Z,7.39
2023-04-10T00:38:38.171Z,7.29
2023-04-10T00:41:05.188Z,7.33
2023-04-10T00:43:31.874Z,7.27
2023-04-10T00:45:58.926Z,7.34
2023-04-10T00:48:26.439Z,7.28
2023-04-10T00:50:53.296Z,7.21
2023-04-10T00:53:20.473Z,7.09
2023-04-10T00:55:47.945Z,6.89
2023-04-10T00:58:14.927Z,6.75
2023-04-10T01:00:42.358Z,6.60
2023-04-10T01:03:09.959Z,6.37
2023-04-10T01:05:45.165Z,6.22
2023-04-10T01:08:17.631Z,6.02
2023-04-10T01:10:56.950Z,5.88
2023-04-10T01:13:32.902Z,5.73
2023-04-10T01:16:11.176Z,5.62
2023-04-10T01:19:05.077Z,5.53
2023-04-10T01:21:36.563Z,5.44
2023-04-10T01:24:36.747Z,5.26
2023-04-10T01:27:21.442Z,5.19
2023-04-10T01:29:56.108Z,5.18
2023-04-10T01:32:25.042Z,5.12
2023-04-10T01:34:54.632Z,5.01
2023-04-10T01:37:43.839Z,4.91
2023-04-10T01:40:15.731Z,4.88
2023-04-10T01:42:55.505Z,4.81
2023-04-10T01:45:27.870Z,4.76
2023-04-10T01:47:55.750Z,4.68
2023-04-10T01:50:26.169Z,4.68
2023-04-10T01:52:53.055Z,4.60
2023-04-10T01:55:21.082Z,4.57
2023-04-10T01:57:49.164Z,4.52
2023-04-10T02:00:16.994Z,4.46
2023-04-10T02:02:44.861Z,4.39
2023-04-10T02:05:11.667Z,4.38
2023-04-10T02:08:15.588Z,4.38
2023-04-10T02:10:52.234Z,4.32
2023-04-10T02:13:21.850Z,4.25
2023-04-10T02:15:52.386Z,4.16
2023-04-10T02:18:20.256Z,4.11
2023-04-10T02:20:47.369Z,4.31
2023-04-10T02:23:17.526Z,4.28
2023-04-10T02:25:44.471Z,4.16
2023-04-10T02:28:11.057Z,4.10
2023-04-10T02:30:39.295Z,3.95
2023-04-10T02:33:06.064Z,3.87
2023-04-10T02:35:34.282Z,3.77
2023-04-10T02:38:01.031Z,3.65
2023-04-10T02:40:27.952Z,3.56
2023-04-10T02:42:54.552Z,3.51
2023-04-10T02:45:21.450Z,3.44
2023-04-10T02:47:48.163Z,3.45
2023-04-10T02:50:14.912Z,3.47
2023-04-10T02:52:42.109Z,3.52
2023-04-10T02:55:09.244Z,3.92
2023-04-10T02:57:36.615Z,4.36
2023-04-10T03:00:05.448Z,4.49
2023-04-10T03:02:32.970Z,4.41
2023-04-10T03:05:02.113Z,4.36
2023-04-10T03:07:28.754Z,4.16
2023-04-10T03:09:55.449Z,4.07
2023-04-10T03:12:22.142Z,3.97
2023-04-10T03:14:48.811Z,3.93
2023-04-10T03:17:15.507Z,3.89
2023-04-10T03:19:42.191Z,3.78
2023-04-10T03:22:10.260Z,3.72
2023-04-10T03:24:38.395Z,3.84
2023-04-10T03:27:05.033Z,3.89
2023-04-10T03:29:31.649Z,3.86
2023-04-10T03:31:58.483Z,3.82
2023-04-10T03:34:25.155Z,3.82
2023-04-10T03:36:51.956Z,3.81
2023-04-10T03:39:18.531Z,3.75
2023-04-10T03:41:45.464Z,3.69
2023-04-10T03:44:12.131Z,3.70
2023-04-10T03:46:38.924Z,3.73
2023-04-10T03:49:05.697Z,3.77
2023-04-10T03:51:32.589Z,3.79
2023-04-10T03:53:59.381Z,3.69
2023-04-10T03:56:26.347Z,3.54
2023-04-10T03:58:53.089Z,3.43
2023-04-10T04:01:19.792Z,3.31
2023-04-10T04:03:46.582Z,3.20
2023-04-10T04:06:13.321Z,3.10
2023-04-10T04:08:40.034Z,3.11
2023-04-10T04:11:07.248Z,3.07
2023-04-10T04:13:33.817Z,3.03
2023-04-10T04:16:00.748Z,3.04
2023-04-10T04:18:27.317Z,3.11
2023-04-10T04:20:53.932Z,3.17
2023-04-10T04:23:20.668Z,3.26
2023-04-10T04:25:47.311Z,3.34
2023-04-10T04:28:16.232Z,3.45
2023-04-10T04:30:43.099Z,3.53
2023-04-10T04:33:09.784Z,3.63
2023-04-10T04:35:36.457Z,3.74
2023-04-10T04:38:03.165Z,3.78
2023-04-10T04:40:29.979Z,3.79
2023-04-10T04:42:56.552Z,3.89
2023-04-10T04:45:23.308Z,3.97
2023-04-10T04:47:50.104Z,4.08
2023-04-10T04:50:17.122Z,4.17
2023-04-10T04:52:44.723Z,4.29
2023-04-10T04:55:11.430Z,4.28
2023-04-10T04:57:38.120Z,4.43
2023-04-10T05:00:05.930Z,4.44
2023-04-10T05:02:32.771Z,4.49
2023-04-10T05:04:59.761Z,4.53
2023-04-10T05:07:27.219Z,4.60
2023-04-10T05:09:54.112Z,4.66
2023-04-10T05:12:20.894Z,4.81
2023-04-10T05:14:47.616Z,5.02
2023-04-10T05:17:15.638Z,5.07
2023-04-10T05:19:42.339Z,5.13
2023-04-10T05:22:09.234Z,5.23
2023-04-10T05:24:36.035Z,5.46
2023-04-10T05:27:03.361Z,5.60
2023-04-10T05:29:30.012Z,5.78
2023-04-10T05:31:56.676Z,6.09
2023-04-10T05:34:23.408Z,6.31
2023-04-10T05:36:50.130Z,6.55
2023-04-10T05:39:17.428Z,6.76
2023-04-10T05:41:44.127Z,6.93
2023-04-10T05:44:10.854Z,7.13
2023-04-10T05:46:37.459Z,7.30
2023-04-10T05:49:04.086Z,7.37
2023-04-10T05:51:30.997Z,7.42
2023-04-10T05:53:57.626Z,7.47
2023-04-10T05:56:24.263Z,7.53
2023-04-10T05:58:51.052Z,7.76
2023-04-10T06:01:17.664Z,7.78
2023-04-10T06:03:44.619Z,7.87
2023-04-10T06:06:11.542Z,8.15
2023-04-10T06:08:38.129Z,8.26
2023-04-10T06:11:04.943Z,8.28
2023-04-10T06:13:32.655Z,8.47
2023-04-10T06:15:59.455Z,8.83
2023-04-10T06:18:26.124Z,9.23
2023-04-10T06:20:52.820Z,9.46
2023-04-10T06:23:19.468Z,9.62
2023-04-10T06:25:46.172Z,9.87
2023-04-10T06:28:12.907Z,10.15
2023-04-10T06:30:39.701Z,10.47
2023-04-10T06:33:06.543Z,10.75
2023-04-10T06:35:33.241Z,10.97
2023-04-10T06:37:59.945Z,11.01
2023-04-10T06:40:26.686Z,11.19
2023-04-10T06:42:53.335Z,11.37
2023-04-10T06:45:20.147Z,11.55
2023-04-10T06:47:47.099Z,11.79
2023-04-10T06:50:13.884Z,12.04
2023-04-10T06:52:40.638Z,12.09
2023-04-10T06:55:07.704Z,12.45
2023-04-10T06:57:34.450Z,12.78
2023-04-10T07:00:01.583Z,12.81
2023-04-10T07:02:28.419Z,12.95
2023-04-10T07:04:57.199Z,12.72
2023-04-10T07:07:24.234Z,12.88
2023-04-10T07:09:51.054Z,12.86
2023-04-10T07:12:17.806Z,12.95
2023-04-10T07:14:44.569Z,13.39
2023-04-10T07:17:11.309Z,13.64
2023-04-10T07:19:38.470Z,13.61
2023-04-10T07:22:05.162Z,13.58
2023-04-10T07:24:32.772Z,13.50
2023-04-10T07:27:00.944Z,13.23
2023-04-10T07:29:27.726Z,13.14
2023-04-10T07:31:54.561Z,13.28
2023-04-10T07:34:21.334Z,13.10
2023-04-10T07:36:48.577Z,13.02
2023-04-10T07:39:18.619Z,13.07
2023-04-10T07:41:45.395Z,13.34
2023-04-10T07:44:13.470Z,13.35
2023-04-10T07:46:40.977Z,13.59
2023-04-10T07:49:08.904Z,13.75
2023-04-10T07:51:35.719Z,13.55
2023-04-10T07:54:03.685Z,13.43
2023-04-10T07:56:31.666Z,13.82
2023-04-10T07:59:01.258Z,14.07
2023-04-10T08:01:29.140Z,14.62
2023-04-10T08:03:59.084Z,14.76
2023-04-10T08:06:26.076Z,15.05
2023-04-10T08:08:52.996Z,15.02
2023-04-10T08:11:28.012Z,15.06
2023-04-10T08:13:56.778Z,15.36
2023-04-10T08:16:27.670Z,15.31
2023-04-10T08:18:55.848Z,15.45
2023-04-10T08:21:23.541Z,15.87
2023-04-10T08:23:51.558Z,16.01
2023-04-10T08:26:19.648Z,16.39
2023-04-10T08:28:50.979Z,16.42
2023-04-10T08:31:22.500Z,16.11
2023-04-10T08:33:49.467Z,16.07
2023-04-10T08:36:19.046Z,16.19
2023-04-10T08:38:47.663Z,16.24
2023-04-10T08:41:17.270Z,16.29
2023-04-10T08:43:45.789Z,16.53
2023-04-10T08:46:13.325Z,16.45
2023-04-10T08:48:53.498Z,16.77
2023-04-10T08:51:26.321Z,17.09
2023-04-10T08:53:58.664Z,17.42
2023-04-10T08:56:26.338Z,17.66
2023-04-10T08:58:53.493Z,17.91
2023-04-10T09:01:21.850Z,17.51
2023-04-10T09:03:49.045Z,16.87
2023-04-10T09:06:15.880Z,16.40
2023-04-10T09:08:42.503Z,16.21
2023-04-10T09:11:09.169Z,16.52
2023-04-10T09:13:38.124Z,16.40
2023-04-10T09:16:05.601Z,16.56
2023-04-10T09:18:42.778Z,16.52
2023-04-10T09:21:15.301Z,16.67
2023-04-10T09:23:44.597Z,17.22
2023-04-10T09:26:33.913Z,17.76
2023-04-10T09:29:02.811Z,17.52
2023-04-10T09:31:32.532Z,17.06
2023-04-10T09:34:09.290Z,17.29
2023-04-10T09:36:37.634Z,17.35
2023-04-10T09:39:06.048Z,17.25
2023-04-10T09:41:32.975Z,18.00
2023-04-10T09:44:28.906Z,17.58
2023-04-10T09:46:55.823Z,18.07
2023-04-10T09:49:22.884Z,18.38
2023-04-10T09:51:49.942Z,18.83
2023-04-10T09:54:16.561Z,18.80
2023-04-10T09:56:46.117Z,17.91
2023-04-10T09:59:14.264Z,18.02
2023-04-10T10:01:42.472Z,18.14
2023-04-10T10:04:10.016Z,18.43
2023-04-10T10:06:38.490Z,18.78
2023-04-10T10:09:05.839Z,18.72
2023-04-10T10:11:36.277Z,18.70
2023-04-10T10:14:06.574Z,18.84
2023-04-10T10:16:53.025Z,18.80
2023-04-10T10:19:31.236Z,18.87
2023-04-10T10:22:01.066Z,19.04
2023-04-10T10:24:28.661Z,19.40
2023-04-10T10:26:57.460Z,19.17
2023-04-10T10:29:24.664Z,19.21
2023-04-10T10:31:53.404Z,19.53
2023-04-10T10:34:20.681Z,20.04
2023-04-10T10:36:47.422Z,20.48
2023-04-10T10:39:35.458Z,20.33
2023-04-10T10:42:20.528Z,20.14
2023-04-10T10:44:57.552Z,19.70
2023-04-10T10:47:29.240Z,19.69
2023-04-10T10:50:03.326Z,20.38
2023-04-10T10:52:53.912Z,20.74
2023-04-10T10:55:31.948Z,20.90
2023-04-10T10:58:01.362Z,20.90
2023-04-10T11:00:50.987Z,20.76
2023-04-10T11:03:17.722Z,20.41
2023-04-10T11:05:55.702Z,20.28
2023-04-10T11:08:37.506Z,20.98
2023-04-10T11:11:06.473Z,20.23
2023-04-10T11:13:34.750Z,19.35
2023-04-10T11:16:03.841Z,19.22
2023-04-10T11:18:45.893Z,18.81
2023-04-10T11:21:20.038Z,18.86
2023-04-10T11:23:58.667Z,18.85
2023-04-10T11:26:38.428Z,18.86
2023-04-10T11:29:08.583Z,19.05
2023-04-10T11:31:35.771Z,19.23
2023-04-10T11:34:04.263Z,19.20
2023-04-10T11:36:31.348Z,19.54
2023-04-10T11:39:06.612Z,19.50
2023-04-10T11:41:34.936Z,19.76
2023-04-10T11:44:03.756Z,19.40
2023-04-10T11:46:31.779Z,19.73
2023-04-10T11:49:01.603Z,19.88
2023-04-10T11:51:28.866Z,20.05
2023-04-10T11:54:09.535Z,20.36
2023-04-10T11:56:37.716Z,20.70
2023-04-10T11:59:09.787Z,20.62
2023-04-10T12:01:37.649Z,20.81
2023-04-10T12:04:04.630Z,20.57
2023-04-10T12:06:31.952Z,20.34
2023-04-10T12:08:58.817Z,19.87
2023-04-10T12:11:26.609Z,20.18
2023-04-10T12:13:57.279Z,20.42
2023-04-10T12:16:25.540Z,20.95
2023-04-10T12:18:53.345Z,21.22
2023-04-10T12:21:20.572Z,20.71
2023-04-10T12:23:47.007Z,20.35
2023-04-10T12:26:15.855Z,20.53
2023-04-10T12:28:51.059Z,20.53
2023-04-10T12:31:17.948Z,20.08
2023-04-10T12:33:47.638Z,19.08
2023-04-10T12:36:24.620Z,19.53
2023-04-10T12:38:51.401Z,20.34
2023-04-10T12:41:23.765Z,20.53
2023-04-10T12:43:52.031Z,20.41
2023-04-10T12:46:27.744Z,20.37
2023-04-10T12:48:56.383Z,20.29
2023-04-10T12:51:49.086Z,19.91
2023-04-10T12:54:33.319Z,19.30
2023-04-10T12:57:01.574Z,19.69
2023-04-10T12:59:29.276Z,19.30
2023-04-10T13:01:56.578Z,19.51
2023-04-10T13:04:24.003Z,19.62
2023-04-10T13:06:53.427Z,19.51
2023-04-10T13:09:20.157Z,19.64
2023-04-10T13:11:47.818Z,19.36
2023-04-10T13:14:16.159Z,19.22
2023-04-10T13:16:42.978Z,19.10
2023-04-10T13:19:09.674Z,18.90
2023-04-10T13:21:36.474Z,18.80
2023-04-10T13:24:03.295Z,18.69
2023-04-10T13:26:30.065Z,18.74
2023-04-10T13:28:56.891Z,18.51
2023-04-10T13:31:23.974Z,18.25
2023-04-10T13:33:50.641Z,18.00
2023-04-10T13:36:17.428Z,18.32
2023-04-10T13:38:44.182Z,18.06
2023-04-10T13:41:10.987Z,18.06
2023-04-10T13:43:37.710Z,17.95
2023-04-10T13:46:04.348Z,18.23
2023-04-10T13:48:40.005Z,18.46
2023-04-10T13:51:18.213Z,18.23
2023-04-10T13:53:44.960Z,17.70
2023-04-10T13:56:11.668Z,17.37
2023-04-10T13:58:38.339Z,17.66
2023-04-10T14:01:05.284Z,17.54
2023-04-10T14:03:32.084Z,17.52
2023-04-10T14:05:58.773Z,17.47
2023-04-10T14:08:25.468Z,17.59
2023-04-10T14:10:52.082Z,17.80
2023-04-10T14:13:19.050Z,17.82
2023-04-10T14:15:45.795Z,17.83
2023-04-10T14:18:12.901Z,17.63
2023-04-10T14:20:42.573Z,17.29
2023-04-10T14:23:09.743Z,17.33
2023-04-10T14:25:36.337Z,16.88
2023-04-10T14:28:03.074Z,16.86
2023-04-10T14:30:31.088Z,16.86
2023-04-10T14:32:58.035Z,17.01
2023-04-10T14:35:24.893Z,17.02
2023-04-10T14:37:51.487Z,16.93
2023-04-10T14:40:17.985Z,16.89
2023-04-10T14:42:44.671Z,16.90
2023-04-10T14:45:11.454Z,16.85
2023-04-10T14:47:38.178Z,16.68
2023-04-10T14:50:05.335Z,16.48
2023-04-10T14:52:32.097Z,16.69
2023-04-10T14:54:58.700Z,16.77
2023-04-10T14:57:25.277Z,16.81
2023-04-10T14:59:52.052Z,16.58
2023-04-10T15:02:18.709Z,16.61
2023-04-10T15:04:45.378Z,16.75
2023-04-10T15:07:13.478Z,16.73
2023-04-10T15:09:40.977Z,16.88
2023-04-10T15:12:07.795Z,17.02
2023-04-10T15:14:34.614Z,16.94
2023-04-10T15:17:01.419Z,16.86
2023-04-10T15:19:28.136Z,16.91
2023-04-10T15:21:55.282Z,16.78
2023-04-10T15:24:21.893Z,16.68
2023-04-10T15:26:48.557Z,16.65
2023-04-10T15:29:15.216Z,16.79
2023-04-10T15:31:44.669Z,16.87
2023-04-10T15:34:11.440Z,16.76
2023-04-10T15:36:38.070Z,16.79
2023-04-10T15:39:04.953Z,16.73
2023-04-10T15:41:32.890Z,16.71
2023-04-10T15:43:59.948Z,16.58
2023-04-10T15:46:27.314Z,16.31
2023-04-10T15:48:54.034Z,16.38
2023-04-10T15:51:21.549Z,16.26
2023-04-10T15:53:48.279Z,16.26
2023-04-10T15:56:16.194Z,16.26
2023-04-10T15:58:43.030Z,16.16
2023-04-10T16:01:09.750Z,16.14
2023-04-10T16:03:36.631Z,16.16
2023-04-10T16:06:03.628Z,16.02
2023-04-10T16:08:30.390Z,16.08
2023-04-10T16:10:57.066Z,16.24
2023-04-10T16:13:24.010Z,16.28
2023-04-10T16:15:52.368Z,16.32
2023-04-10T16:18:19.227Z,16.27
2023-04-10T16:20:45.988Z,16.28
2023-04-10T16:23:12.773Z,16.29
2023-04-10T16:25:41.391Z,16.19
2023-04-10T16:28:08.377Z,16.04
2023-04-10T16:30:35.840Z,15.79
2023-04-10T16:33:08.413Z,15.78
2023-04-10T16:35:35.114Z,15.60
2023-04-10T16:38:01.769Z,15.52
2023-04-10T16:40:32.591Z,15.58
2023-04-10T16:43:02.436Z,15.56
2023-04-10T16:45:29.421Z,15.68
2023-04-10T16:47:56.501Z,15.57
2023-04-10T16:50:23.278Z,15.50
2023-04-10T16:52:49.982Z,15.51
2023-04-10T16:55:16.630Z,15.45
2023-04-10T16:57:44.215Z,15.38
2023-04-10T17:00:11.540Z,15.39
2023-04-10T17:02:38.269Z,15.28
2023-04-10T17:05:05.372Z,15.34
2023-04-10T17:07:32.134Z,15.32
2023-04-10T17:09:59.435Z,15.24
2023-04-10T17:12:26.429Z,15.26
2023-04-10T17:14:53.195Z,15.17
2023-04-10T17:17:19.931Z,15.17
2023-04-10T17:19:46.777Z,15.15
2023-04-10T17:22:16.597Z,15.12
2023-04-10T17:24:44.534Z,15.14
2023-04-10T17:27:12.127Z,15.07
2023-04-10T17:29:39.277Z,14.95
2023-04-10T17:32:07.415Z,14.95
2023-04-10T17:34:34.449Z,14.86
2023-04-10T17:37:01.577Z,14.83
2023-04-10T17:39:28.837Z,14.76
2023-04-10T17:41:56.572Z,14.74
2023-04-10T17:44:23.562Z,14.61
2023-04-10T17:46:50.426Z,14.56
2023-04-10T17:49:17.232Z,14.58
2023-04-10T17:51:43.917Z,14.56
2023-04-10T17:54:10.850Z,14.44
2023-04-10T17:56:37.709Z,14.49
2023-04-10T17:59:13.569Z,14.35
2023-04-10T18:01:40.452Z,14.34
2023-04-10T18:04:07.515Z,14.10
2023-04-10T18:06:34.270Z,14.13
2023-04-10T18:09:01.009Z,14.16
2023-04-10T18:11:28.588Z,14.07
2023-04-10T18:13:55.132Z,13.93
2023-04-10T18:16:21.941Z,13.94
2023-04-10T18:18:48.793Z,13.88
2023-04-10T18:21:16.334Z,13.73
2023-04-10T18:23:44.758Z,13.67
2023-04-10T18:26:11.991Z,13.70
2023-04-10T18:28:39.127Z,13.62
2023-04-10T18:31:06.434Z,13.57
2023-04-10T18:33:33.238Z,13.62
2023-04-10T18:36:00.083Z,13.50
2023-04-10T18:38:26.935Z,13.53
2023-04-10T18:40:57.962Z,13.57
2023-04-10T18:43:27.981Z,13.43
2023-04-10T18:45:55.335Z,13.55
2023-04-10T18:48:22.138Z,13.49
2023-04-10T18:50:52.498Z,13.52
2023-04-10T18:53:19.730Z,13.37
2023-04-10T18:55:53.684Z,13.43
2023-04-10T18:58:21.725Z,13.32
2023-04-10T19:00:49.251Z,13.41
2023-04-10T19:03:16.173Z,13.27
2023-04-10T19:05:43.788Z,13.29
2023-04-10T19:08:14.504Z,13.25
2023-04-10T19:10:42.349Z,13.17
2023-04-10T19:13:12.496Z,13.19
2023-04-10T19:15:43.822Z,13.16
2023-04-10T19:18:12.302Z,13.14
2023-04-10T19:20:50.106Z,13.14
2023-04-10T19:23:19.518Z,13.07
2023-04-10T19:25:46.192Z,13.16
2023-04-10T19:28:12.930Z,13.18
2023-04-10T19:30:39.567Z,13.08
2023-04-10T19:33:06.302Z,13.01
2023-04-10T19:35:32.919Z,12.98
2023-04-10T19:37:59.648Z,12.99
2023-04-10T19:40:26.450Z,12.91
2023-04-10T19:42:53.219Z,13.00
2023-04-10T19:45:20.501Z,12.94
2023-04-10T19:47:50.834Z,12.95
2023-04-10T19:50:17.530Z,12.94
2023-04-10T19:52:44.093Z,12.93
2023-04-10T19:55:11.014Z,12.96
2023-04-10T19:57:37.561Z,12.80
2023-04-10T20:00:04.424Z,12.81
2023-04-10T20:02:31.440Z,12.77
2023-04-10T20:04:58.554Z,12.77
2023-04-10T20:07:25.302Z,12.75
2023-04-10T20:09:52.004Z,12.79
2023-04-10T20:12:18.653Z,12.74
2023-04-10T20:14:45.425Z,12.77
2023-04-10T20:17:12.257Z,12.72
2023-04-10T20:19:38.917Z,12.71
2023-04-10T20:22:05.566Z,12.58
2023-04-10T20:24:32.125Z,12.59
2023-04-10T20:26:58.667Z,12.65
2023-04-10T20:29:26.637Z,12.52
2023-04-10T20:31:53.289Z,12.58
2023-04-10T20:34:19.917Z,12.58
2023-04-10T20:36:46.501Z,12.59
2023-04-10T20:39:13.080Z,12.53
2023-04-10T20:41:39.729Z,12.57
2023-04-10T20:44:07.101Z,12.56
2023-04-10T20:46:34.140Z,12.63
2023-04-10T20:49:00.939Z,12.61
2023-04-10T20:51:28.807Z,12.64
2023-04-10T20:53:55.589Z,12.57
2023-04-10T20:56:30.051Z,12.60
2023-04-10T20:58:59.675Z,12.55
2023-04-10T21:01:26.429Z,12.59
2023-04-10T21:03:53.282Z,12.53
2023-04-10T21:06:20.015Z,12.46
2023-04-10T21:08:46.727Z,12.49
2023-04-10T21:11:13.497Z,12.43
2023-04-10T21:13:40.132Z,12.38
2023-04-10T21:16:07.151Z,12.34
2023-04-10T21:18:33.901Z,12.34
2023-04-10T21:21:00.658Z,12.30
2023-04-10T21:23:27.337Z,12.28
2023-04-10T21:25:54.267Z,12.28
2023-04-10T21:28:21.164Z,12.27
2023-04-10T21:30:47.882Z,12.25
2023-04-10T21:33:14.891Z,12.24
2023-04-10T21:35:45.155Z,12.29
2023-04-10T21:38:12.486Z,12.27
2023-04-10T21:40:39.250Z,12.27
2023-04-10T21:43:06.492Z,12.30
2023-04-10T21:45:37.612Z,12.31
2023-04-10T21:48:04.497Z,12.23
2023-04-10T21:50:31.252Z,12.27
2023-04-10T21:52:58.046Z,12.27
2023-04-10T21:55:24.726Z,12.27
2023-04-10T21:57:51.484Z,12.19
2023-04-10T22:00:19.496Z,12.21
2023-04-10T22:02:47.375Z,12.25
2023-04-10T22:05:14.260Z,12.22
2023-04-10T22:07:40.909Z,12.29
2023-04-10T22:10:08.406Z,12.31
2023-04-10T22:12:35.031Z,12.44
2023-04-10T22:15:01.668Z,12.36
2023-04-10T22:17:28.435Z,12.40
2023-04-10T22:19:55.104Z,12.39
2023-04-10T22:22:21.857Z,12.35
2023-04-10T22:24:48.526Z,12.34
2023-04-10T22:27:15.533Z,12.33
2023-04-10T22:29:45.408Z,12.25
2023-04-10T22:32:14.407Z,12.23
2023-04-10T22:34:41.166Z,12.30
2023-04-10T22:37:07.876Z,12.28
2023-04-10T22:39:34.404Z,12.25
2023-04-10T22:42:01.126Z,12.18
2023-04-10T22:44:27.688Z,12.18
2023-04-10T22:46:54.282Z,12.23
2023-04-10T22:49:20.892Z,12.25
2023-04-10T22:51:47.486Z,12.25
2023-04-10T22:54:14.598Z,12.28
2023-04-10T22:56:41.217Z,12.26
2023-04-10T22:59:07.864Z,12.19
2023-04-10T23:01:34.955Z,12.18
2023-04-10T23:04:01.715Z,12.11
2023-04-10T23:06:28.356Z,12.07
2023-04-10T23:08:55.084Z,12.03
2023-04-10T23:11:21.996Z,12.07
2023-04-10T23:13:49.245Z,12.01
2023-04-10T23:16:15.951Z,11.99
2023-04-10T23:18:42.609Z,11.99
2023-04-10T23:21:09.335Z,11.97
2023-04-10T23:23:35.927Z,12.00
2023-04-10T23:26:02.791Z,11.98
2023-04-10T23:28:29.708Z,11.99
2023-04-10T23:30:56.337Z,11.98
2023-04-10T23:33:23.182Z,11.96
2023-04-10T23:35:49.807Z,11.92
2023-04-10T23:38:16.587Z,11.89
2023-04-10T23:40:43.194Z,11.96
2023-04-10T23:43:09.771Z,11.94
2023-04-10T23:45:36.602Z,11.89
2023-04-10T23:48:03.281Z,11.93
2023-04-10T23:50:29.938Z,11.84
2023-04-10T23:52:56.826Z,11.77
2023-04-10T23:55:23.626Z,11.61
2023-04-10T23:57:50.289Z,11.63
